createdAt,value
2023-03-14T00:01:45.469Z,100179.53
2023-03-14T00:05:09.115Z,100179.07
2023-03-14T00:08:05.874Z,100175.55
2023-03-14T00:11:17.442Z,100169.16
2023-03-14T00:14:02.853Z,100167.91
2023-03-14T00:17:18.919Z,100171.41
2023-03-14T00:20:46.705Z,100173.81
2023-03-14T00:24:02.392Z,100164.14
2023-03-14T00:27:18.122Z,100161.95
2023-03-14T00:30:34.150Z,100155.41
2023-03-14T00:33:42.416Z,100148.48
2023-03-14T00:36:59.627Z,100142.89
2023-03-14T00:40:09.569Z,100135.05
2023-03-14T00:43:38.704Z,100131.94
2023-03-14T00:47:07.019Z,100128.95
2023-03-14T00:50:22.676Z,100121.91
2023-03-14T00:53:12.161Z,100120.83
2023-03-14T00:56:40.085Z,100123.70
2023-03-14T00:59:55.888Z,100122.65
2023-03-14T01:03:23.542Z,100119.95
2023-03-14T01:06:39.081Z,100120.70
2023-03-14T01:09:28.444Z,100117.77
2023-03-14T01:12:37.361Z,100107.05
2023-03-14T01:16:05.694Z,100103.65
2023-03-14T01:19:33.802Z,100101.16
2023-03-14T01:22:49.999Z,100095.06
2023-03-14T01:25:58.728Z,100090.73
2023-03-14T01:29:08.269Z,100088.18
2023-03-14T01:32:36.134Z,100086.58
2023-03-14T01:35:26.970Z,100085.34
2023-03-14T01:38:37.127Z,100081.11
2023-03-14T01:41:45.509Z,100067.52
2023-03-14T01:45:13.487Z,100058.34
2023-03-14T01:48:41.317Z,100055.32
2023-03-14T01:51:19.365Z,100049.88
2023-03-14T01:54:27.143Z,100050.49
2023-03-14T01:57:43.624Z,100052.73
2023-03-14T02:00:33.437Z,100053.98
2023-03-14T02:03:24.156Z,100049.83
2023-03-14T02:06:51.965Z,100044.98
2023-03-14T02:10:05.718Z,100047.30
2023-03-14T02:12:39.599Z,100045.90
2023-03-14T02:16:13.603Z,100046.63
2023-03-14T02:19:10.271Z,100046.20
2023-03-14T02:22:40.595Z,100047.24
2023-03-14T02:26:01.829Z,100044.44
2023-03-14T02:29:10.536Z,100044.77
2023-03-14T02:32:26.071Z,100045.09
2023-03-14T02:35:36.295Z,100045.38
2023-03-14T02:38:53.489Z,100041.91
2023-03-14T02:42:01.427Z,100043.00
2023-03-14T02:44:58.060Z,100040.03
2023-03-14T02:48:25.776Z,100035.48
2023-03-14T02:51:51.234Z,100036.17
2023-03-14T02:55:07.076Z,100038.35
2023-03-14T02:58:30.489Z,100035.08
2023-03-14T03:01:07.033Z,100036.33
2023-03-14T03:04:34.819Z,100041.92
2023-03-14T03:08:02.809Z,100038.80
2023-03-14T03:11:11.576Z,100041.11
2023-03-14T03:14:39.253Z,100036.05
2023-03-14T03:17:50.821Z,100029.23
2023-03-14T03:21:18.692Z,100029.31
2023-03-14T03:24:28.567Z,100031.83
2023-03-14T03:27:26.497Z,100025.83
2023-03-14T03:30:36.613Z,100017.62
2023-03-14T03:33:46.527Z,100022.60
2023-03-14T03:36:55.857Z,100023.30
2023-03-14T03:40:02.119Z,100027.20
2023-03-14T03:43:30.119Z,100034.87
2023-03-14T03:46:23.773Z,100032.79
2023-03-14T03:49:51.717Z,100032.26
2023-03-14T03:53:07.350Z,100031.59
2023-03-14T03:56:35.533Z,100018.67
2023-03-14T03:59:51.519Z,100017.77
2023-03-14T04:02:59.853Z,100019.02
2023-03-14T04:06:25.345Z,100021.34
2023-03-14T04:09:15.400Z,100021.34
2023-03-14T04:12:54.925Z,100014.24
2023-03-14T04:16:11.040Z,100009.47
2023-03-14T04:19:19.583Z,100011.72
2023-03-14T04:22:30.198Z,100010.87
2023-03-14T04:25:38.833Z,100015.06
2023-03-14T04:28:43.062Z,100020.02
2023-03-14T04:32:10.787Z,100014.19
2023-03-14T04:35:38.567Z,100006.14
2023-03-14T04:38:28.289Z,100000.73
2023-03-14T04:41:41.731Z,99999.89
2023-03-14T04:44:49.830Z,99994.39
2023-03-14T04:47:45.141Z,99989.23
2023-03-14T04:51:09.497Z,99989.34
2023-03-14T04:53:57.709Z,99990.13
2023-03-14T04:57:09.297Z,99987.70
2023-03-14T05:00:18.054Z,99985.19
2023-03-14T05:03:11.129Z,99983.53
2023-03-14T05:06:34.774Z,99976.29
2023-03-14T05:09:44.522Z,99966.02
2023-03-14T05:12:51.356Z,99963.96
2023-03-14T05:16:24.132Z,99967.08
2023-03-14T05:19:52.042Z,99960.75
2023-03-14T05:23:20.059Z,99951.44
2023-03-14T05:26:57.057Z,99947.92
2023-03-14T05:30:27.262Z,99945.05
2023-03-14T05:33:34.040Z,99943.02
2023-03-14T05:36:41.848Z,99925.52
2023-03-14T05:40:08.968Z,99930.32
2023-03-14T05:43:07.681Z,99923.89
2023-03-14T05:46:16.563Z,99925.11
2023-03-14T05:49:40.464Z,99925.11
2023-03-14T05:52:57.388Z,99919.48
2023-03-14T05:56:31.573Z,99910.41
2023-03-14T05:59:51.018Z,99900.20
2023-03-14T06:02:58.191Z,99897.73
2023-03-14T06:06:08.048Z,99908.92
2023-03-14T06:09:35.782Z,99909.52
2023-03-14T06:13:03.569Z,99898.25
2023-03-14T06:16:32.500Z,99903.25
2023-03-14T06:20:00.187Z,99900.19
2023-03-14T06:23:28.058Z,99896.42
2023-03-14T06:30:13.865Z,99896.58
2023-03-14T06:33:08.165Z,99898.49
2023-03-14T06:36:18.965Z,99892.23
2023-03-14T06:38:57.501Z,99890.95
2023-03-14T06:42:05.452Z,99883.34
2023-03-14T06:45:28.615Z,99866.27
2023-03-14T06:48:56.648Z,99851.42
2023-03-14T06:52:24.595Z,99845.70
2023-03-14T06:55:32.664Z,99849.57
2023-03-14T06:58:41.138Z,99849.58
2023-03-14T07:01:51.647Z,99851.80
2023-03-14T07:05:19.412Z,99853.52
2023-03-14T07:08:08.660Z,99852.98
2023-03-14T07:11:36.681Z,99841.65
2023-03-14T07:15:19.343Z,99837.19
2023-03-14T07:18:13.139Z,99838.55
2023-03-14T07:21:40.857Z,99833.00
2023-03-14T07:24:49.445Z,99836.60
2023-03-14T07:28:17.454Z,99838.71
2023-03-14T07:31:47.961Z,99844.92
2023-03-14T07:34:55.978Z,99841.16
2023-03-14T07:37:45.534Z,99848.50
2023-03-14T07:40:19.312Z,99847.11
2023-03-14T07:42:47.756Z,99846.05
2023-03-14T07:45:43.468Z,99844.57
2023-03-14T07:48:51.846Z,99833.09
2023-03-14T07:51:39.921Z,99830.44
2023-03-14T07:54:28.691Z,99824.53
2023-03-14T07:57:16.552Z,99816.29
2023-03-14T07:59:46.481Z,99819.30
2023-03-14T08:02:16.432Z,99827.04
2023-03-14T08:05:04.885Z,99824.96
2023-03-14T08:07:33.792Z,99821.02
2023-03-14T08:10:02.800Z,99824.50
2023-03-14T08:12:32.116Z,99822.77
2023-03-14T08:15:21.077Z,99810.36
2023-03-14T08:18:09.213Z,99811.30
2023-03-14T08:20:37.087Z,99812.16
2023-03-14T08:23:45.064Z,99814.98
2023-03-14T08:26:12.973Z,99814.34
2023-03-14T08:29:20.769Z,99814.16
2023-03-14T08:31:49.284Z,99821.77
2023-03-14T08:34:17.206Z,99820.84
2023-03-14T08:36:45.623Z,99824.23
2023-03-14T08:39:33.476Z,99814.75
2023-03-14T08:42:01.325Z,99807.80
2023-03-14T08:44:49.959Z,99806.64
2023-03-14T08:47:18.705Z,99799.80
2023-03-14T08:49:50.911Z,99784.67
2023-03-14T08:52:39.842Z,99792.85
2023-03-14T08:55:35.670Z,99782.14
2023-03-14T08:58:05.670Z,99769.73
2023-03-14T09:01:09.610Z,99756.88
2023-03-14T09:03:46.680Z,99750.70
2023-03-14T09:06:15.375Z,99749.70
2023-03-14T09:08:47.977Z,99755.95
2023-03-14T09:11:16.314Z,99755.77
2023-03-14T09:13:45.121Z,99762.55
2023-03-14T09:16:34.011Z,99755.06
2023-03-14T09:19:04.591Z,99753.48
2023-03-14T09:21:33.136Z,99754.36
2023-03-14T09:24:22.186Z,99741.96
2023-03-14T09:26:58.037Z,99745.23
2023-03-14T09:29:26.134Z,99748.27
2023-03-14T09:31:54.144Z,99751.10
2023-03-14T09:35:05.955Z,99747.50
2023-03-14T09:37:35.678Z,99742.45
2023-03-14T09:40:47.887Z,99742.81
2023-03-14T09:43:16.512Z,99737.44
2023-03-14T09:45:44.574Z,99734.88
2023-03-14T09:48:34.086Z,99726.81
2023-03-14T09:51:02.091Z,99714.96
2023-03-14T09:53:41.195Z,99717.83
2023-03-14T09:56:15.835Z,99716.90
2023-03-14T09:58:46.922Z,99709.63
2023-03-14T10:01:34.870Z,99709.10
2023-03-14T10:04:03.215Z,99701.08
2023-03-14T10:06:31.183Z,99693.22
2023-03-14T10:09:00.788Z,99697.69
2023-03-14T10:11:37.477Z,99688.60
2023-03-14T10:14:06.112Z,99688.38
2023-03-14T10:17:13.915Z,99681.58
2023-03-14T10:20:01.935Z,99684.86
2023-03-14T10:22:29.839Z,99675.83
2023-03-14T10:25:34.246Z,99668.25
2023-03-14T10:28:10.886Z,99649.98
2023-03-14T10:30:42.666Z,99646.63
2023-03-14T10:33:46.938Z,99645.30
2023-03-14T10:36:39.029Z,99639.70
2023-03-14T10:39:27.545Z,99627.31
2023-03-14T10:42:15.461Z,99617.03
2023-03-14T10:45:03.335Z,99619.11
2023-03-14T10:47:32.825Z,99618.06
2023-03-14T10:50:17.409Z,99603.80
2023-03-14T10:53:10.298Z,99593.23
2023-03-14T10:56:03.190Z,99588.45
2023-03-14T10:58:33.097Z,99586.09
2023-03-14T11:01:03.179Z,99576.62
2023-03-14T11:03:33.175Z,99578.17
2023-03-14T11:06:01.727Z,99570.57
2023-03-14T11:08:38.969Z,99564.55
2023-03-14T11:11:11.136Z,99558.82
2023-03-14T11:13:39.801Z,99549.65
2023-03-14T11:16:12.390Z,99540.61
2023-03-14T11:18:42.680Z,99540.36
2023-03-14T11:21:23.138Z,99532.05
2023-03-14T11:23:51.949Z,99533.89
2023-03-14T11:26:19.967Z,99531.65
2023-03-14T11:28:49.232Z,99524.57
2023-03-14T11:31:53.068Z,99516.88
2023-03-14T11:34:58.608Z,99513.02
2023-03-14T11:37:55.530Z,99505.60
2023-03-14T11:40:23.488Z,99497.00
2023-03-14T11:43:16.020Z,99493.95
2023-03-14T11:45:48.888Z,99479.34
2023-03-14T11:48:22.051Z,99465.98
2023-03-14T11:51:17.916Z,99456.73
2023-03-14T11:54:05.697Z,99449.99
2023-03-14T11:56:44.569Z,99440.23
2023-03-14T11:59:32.616Z,99441.70
2023-03-14T12:02:03.113Z,99439.05
2023-03-14T12:04:33.040Z,99443.86
2023-03-14T12:07:05.593Z,99439.02
2023-03-14T12:09:33.589Z,99440.27
2023-03-14T12:12:02.586Z,99440.14
2023-03-14T12:14:31.868Z,99436.98
2023-03-14T12:17:00.738Z,99423.52
2023-03-14T12:19:29.396Z,99413.30
2023-03-14T12:22:17.475Z,99411.91
2023-03-14T12:24:49.605Z,99412.33
2023-03-14T12:27:37.596Z,99401.63
2023-03-14T12:30:05.998Z,99394.85
2023-03-14T12:32:34.871Z,99408.48
2023-03-14T12:35:03.247Z,99400.88
2023-03-14T12:37:32.078Z,99404.84
2023-03-14T12:40:00.562Z,99397.48
2023-03-14T12:42:42.501Z,99394.91
2023-03-14T12:45:12.976Z,99378.98
2023-03-14T12:47:43.023Z,99376.80
2023-03-14T12:50:10.989Z,99380.69
2023-03-14T12:52:39.019Z,99375.05
2023-03-14T12:55:09.595Z,99361.58
2023-03-14T12:57:38.192Z,99361.59
2023-03-14T13:00:05.996Z,99347.52
2023-03-14T13:02:54.260Z,99335.57
2023-03-14T13:05:24.336Z,99335.89
2023-03-14T13:08:14.635Z,99337.65
2023-03-14T13:10:44.169Z,99325.20
2023-03-14T13:13:12.977Z,99326.17
2023-03-14T13:15:41.277Z,99326.73
2023-03-14T13:18:09.094Z,99315.77
2023-03-14T13:20:37.279Z,99310.52
2023-03-14T13:23:15.113Z,99306.79
2023-03-14T13:25:43.386Z,99293.91
2023-03-14T13:28:11.222Z,99295.54
2023-03-14T13:30:39.828Z,99287.12
2023-03-14T13:33:08.503Z,99290.94
2023-03-14T13:35:37.117Z,99286.41
2023-03-14T13:38:12.057Z,99278.98
2023-03-14T13:40:40.965Z,99274.84
2023-03-14T13:43:08.973Z,99273.24
2023-03-14T13:45:38.003Z,99265.24
2023-03-14T13:48:05.928Z,99262.46
2023-03-14T13:50:33.767Z,99248.19
2023-03-14T13:53:01.825Z,99247.30
2023-03-14T13:55:34.147Z,99237.29
2023-03-14T13:58:02.942Z,99233.81
2023-03-14T14:00:31.322Z,99225.06
2023-03-14T14:02:59.168Z,99214.08
2023-03-14T14:05:27.556Z,99214.90
2023-03-14T14:07:56.145Z,99194.94
2023-03-14T14:10:27.971Z,99202.30
2023-03-14T14:12:57.590Z,99200.26
2023-03-14T14:15:36.291Z,99193.98
2023-03-14T14:18:05.475Z,99195.05
2023-03-14T14:20:53.364Z,99182.55
2023-03-14T14:23:21.312Z,99182.98
2023-03-14T14:26:27.553Z,99177.27
2023-03-14T14:29:19.157Z,99171.71
2023-03-14T14:31:50.792Z,99170.46
2023-03-14T14:34:19.412Z,99162.74
2023-03-14T14:37:05.536Z,99172.04
2023-03-14T14:39:35.624Z,99165.22
2023-03-14T14:42:47.656Z,99157.45
2023-03-14T14:45:53.933Z,99152.79
2023-03-14T14:48:38.242Z,99149.80
2023-03-14T14:51:43.029Z,99154.84
2023-03-14T14:54:11.273Z,99153.88
2023-03-14T14:56:41.511Z,99151.41
2023-03-14T14:59:10.485Z,99150.36
2023-03-14T15:01:46.726Z,99138.85
2023-03-14T15:04:17.498Z,99147.11
2023-03-14T15:06:46.398Z,99144.80
2023-03-14T15:09:34.523Z,99142.61
2023-03-14T15:12:02.802Z,99131.94
2023-03-14T15:14:30.973Z,99135.31
2023-03-14T15:16:59.008Z,99127.98
2023-03-14T15:19:26.932Z,99132.81
2023-03-14T15:21:55.731Z,99132.51
2023-03-14T15:24:23.609Z,99136.69
2023-03-14T15:26:51.375Z,99130.77
2023-03-14T15:29:20.368Z,99127.52
2023-03-14T15:31:48.335Z,99128.80
2023-03-14T15:34:16.656Z,99127.67
2023-03-14T15:36:45.001Z,99126.52
2023-03-14T15:39:13.754Z,99128.79
2023-03-14T15:41:42.077Z,99129.27
2023-03-14T15:44:12.187Z,99130.19
2023-03-14T15:46:40.200Z,99132.59
2023-03-14T15:49:08.155Z,99131.20
2023-03-14T15:51:35.982Z,99137.54
2023-03-14T15:54:04.340Z,99136.10
2023-03-14T15:56:40.412Z,99132.54
2023-03-14T15:59:09.235Z,99138.48
2023-03-14T16:01:46.068Z,99133.35
2023-03-14T16:04:15.897Z,99128.55
2023-03-14T16:06:44.162Z,99127.15
2023-03-14T16:09:13.905Z,99127.80
2023-03-14T16:11:42.087Z,99127.09
2023-03-14T16:14:10.011Z,99130.86
2023-03-14T16:16:38.645Z,99131.88
2023-03-14T16:19:12.352Z,99134.30
2023-03-14T16:22:04.471Z,99134.86
2023-03-14T16:25:16.661Z,99131.00
2023-03-14T16:28:11.246Z,99131.30
2023-03-14T16:30:40.645Z,99143.00
2023-03-14T16:33:28.832Z,99137.92
2023-03-14T16:35:57.835Z,99141.84
2023-03-14T16:38:26.086Z,99144.64
2023-03-14T16:40:54.229Z,99144.59
2023-03-14T16:43:22.566Z,99149.58
2023-03-14T16:46:32.437Z,99154.16
2023-03-14T16:49:40.302Z,99156.30
2023-03-14T16:52:09.351Z,99155.85
2023-03-14T16:54:59.382Z,99150.52
2023-03-14T16:57:48.811Z,99146.20
2023-03-14T17:00:18.350Z,99144.19
2023-03-14T17:03:10.287Z,99141.84
2023-03-14T17:06:38.201Z,99140.80
2023-03-14T17:10:07.298Z,99138.01
2023-03-14T17:12:39.443Z,99139.94
2023-03-14T17:15:47.221Z,99141.55
2023-03-14T17:18:35.872Z,99139.46
2023-03-14T17:21:24.981Z,99138.55
2023-03-14T17:24:13.600Z,99128.09
2023-03-14T17:27:41.535Z,99135.09
2023-03-14T17:30:50.058Z,99137.86
2023-03-14T17:33:18.231Z,99136.09
2023-03-14T17:36:46.497Z,99140.67
2023-03-14T17:40:10.598Z,99132.56
2023-03-14T17:43:07.963Z,99140.02
2023-03-14T17:45:57.712Z,99139.38
2023-03-14T17:49:25.676Z,99136.75
2023-03-14T17:52:53.466Z,99133.25
2023-03-14T17:56:17.190Z,99138.02
2023-03-14T17:59:45.005Z,99132.13
2023-03-14T18:02:58.581Z,99129.15
2023-03-14T18:06:03.855Z,99132.61
2023-03-14T18:09:13.061Z,99136.80
2023-03-14T18:12:40.978Z,99135.28
2023-03-14T18:15:49.893Z,99143.99
2023-03-14T18:18:39.357Z,99136.77
2023-03-14T18:21:47.580Z,99139.83
2023-03-14T18:25:15.513Z,99139.96
2023-03-14T18:28:43.416Z,99133.49
2023-03-14T18:32:11.361Z,99133.65
2023-03-14T18:35:35.109Z,99131.22
2023-03-14T18:39:02.804Z,99132.08
2023-03-14T18:42:14.559Z,99134.80
2023-03-14T18:45:39.541Z,99137.04
2023-03-14T18:49:07.549Z,99134.10
2023-03-14T18:52:35.596Z,99137.48
2023-03-14T18:56:03.557Z,99135.45
2023-03-14T18:59:31.622Z,99134.06
2023-03-14T19:02:59.894Z,99136.62
2023-03-14T19:06:23.956Z,99135.20
2023-03-14T19:09:51.687Z,99130.20
2023-03-14T19:13:15.527Z,99128.94
2023-03-14T19:16:20.983Z,99124.72
2023-03-14T19:19:36.887Z,99129.48
2023-03-14T19:22:46.622Z,99128.16
2023-03-14T19:25:37.454Z,99121.03
2023-03-14T19:29:05.329Z,99121.77
2023-03-14T19:32:14.341Z,99121.05
2023-03-14T19:35:42.134Z,99114.61
2023-03-14T19:39:09.976Z,99118.77
2023-03-14T19:42:37.944Z,99117.59
2023-03-14T19:46:05.689Z,99115.39
2023-03-14T19:49:34.006Z,99118.15
2023-03-14T19:53:04.277Z,99116.71
2023-03-14T19:55:52.134Z,99114.73
2023-03-14T19:59:19.956Z,99113.11
2023-03-14T20:02:47.833Z,99112.43
2023-03-14T20:06:15.920Z,99108.36
2023-03-14T20:09:43.745Z,99109.32
2023-03-14T20:13:20.763Z,99109.56
2023-03-14T20:16:39.359Z,99108.10
2023-03-14T20:19:48.193Z,99099.35
2023-03-14T20:22:56.982Z,99099.69
2023-03-14T20:26:24.883Z,99092.94
2023-03-14T20:29:52.524Z,99091.86
2023-03-14T20:33:20.316Z,99084.26
2023-03-14T20:36:48.203Z,99086.21
2023-03-14T20:40:15.959Z,99087.58
2023-03-14T20:43:44.138Z,99083.81
2023-03-14T20:47:12.430Z,99078.75
2023-03-14T20:50:40.884Z,99079.74
2023-03-14T20:54:08.773Z,99079.66
2023-03-14T20:57:16.820Z,99084.42
2023-03-14T20:59:55.266Z,99077.84
2023-03-14T21:02:52.546Z,99078.11
2023-03-14T21:06:01.317Z,99077.85
2023-03-14T21:09:10.500Z,99072.02
2023-03-14T21:12:20.543Z,99072.75
2023-03-14T21:15:28.738Z,99068.17
2023-03-14T21:18:36.548Z,99067.32
2023-03-14T21:22:04.530Z,99065.10
2023-03-14T21:25:32.282Z,99062.18
2023-03-14T21:29:00.308Z,99060.65
2023-03-14T21:32:28.471Z,99057.77
2023-03-14T21:35:57.304Z,99060.23
2023-03-14T21:39:25.079Z,99057.50
2023-03-14T21:42:15.829Z,99056.08
2023-03-14T21:45:43.623Z,99056.11
2023-03-14T21:49:11.900Z,99056.02
2023-03-14T21:52:39.658Z,99055.23
2023-03-14T21:56:07.608Z,99050.10
2023-03-14T21:59:35.950Z,99050.75
2023-03-14T22:03:12.887Z,99050.85
2023-03-14T22:06:33.606Z,99047.52
2023-03-14T22:10:01.361Z,99047.69
2023-03-14T22:13:29.056Z,99044.45
2023-03-14T22:16:56.755Z,99045.30
2023-03-14T22:20:24.649Z,99044.04
2023-03-14T22:23:44.955Z,99048.54
2023-03-14T22:26:53.441Z,99044.40
2023-03-14T22:30:02.326Z,99046.88
2023-03-14T22:33:30.545Z,99046.85
2023-03-14T22:36:58.328Z,99045.09
2023-03-14T22:40:14.127Z,99039.34
2023-03-14T22:43:23.804Z,99046.58
2023-03-14T22:46:52.030Z,99043.06
2023-03-14T22:50:19.735Z,99048.38
2023-03-14T22:53:47.461Z,99051.39
2023-03-14T22:57:15.126Z,99053.47
2023-03-14T23:00:23.559Z,99050.67
2023-03-14T23:03:51.228Z,99055.59
2023-03-14T23:07:19.283Z,99050.58
2023-03-14T23:10:28.341Z,99057.36
2023-03-14T23:13:56.136Z,99059.45
2023-03-14T23:17:23.850Z,99060.85
2023-03-14T23:20:51.985Z,99067.73
2023-03-14T23:24:19.744Z,99080.79
2023-03-14T23:27:47.897Z,99110.64
2023-03-14T23:31:13.392Z,99138.86
2023-03-14T23:34:29.225Z,99143.92
2023-03-14T23:37:39.144Z,99151.06
2023-03-14T23:41:07.172Z,99153.46
2023-03-14T23:44:35.288Z,99162.23
2023-03-14T23:48:03.133Z,99153.16
2023-03-14T23:51:31.185Z,99154.77
2023-03-14T23:54:47.632Z,99158.21
2023-03-14T23:58:15.636Z,99165.66
